sensor_id;sensor_type;location;lat;lon;timestamp;P1;durP1;ratioP1;P2;durP2;ratioP2
51020;SDS011;38907;45.562;8.856;2022-10-19T00:03:43;36.33;;;23.27;;
51020;SDS011;38907;45.562;8.856;2022-10-19T00:08:47;35.35;;;22.67;;
51020;SDS011;38907;45.562;8.856;2022-10-19T00:13:50;34.67;;;21.60;;
51020;SDS011;38907;45.562;8.856;2022-10-19T00:18:54;35.38;;;21.55;;
51020;SDS011;38907;45.562;8.856;2022-10-19T00:23:57;35.08;;;22.25;;
51020;SDS011;38907;45.562;8.856;2022-10-19T00:29:00;37.28;;;20.95;;
51020;SDS011;38907;45.562;8.856;2022-10-19T00:34:02;39.08;;;21.27;;
51020;SDS011;38907;45.562;8.856;2022-10-19T00:39:06;32.30;;;20.23;;
51020;SDS011;38907;45.562;8.856;2022-10-19T00:49:51;27.40;;;18.80;;
51020;SDS011;38907;45.562;8.856;2022-10-19T00:54:55;29.45;;;19.40;;
51020;SDS011;38907;45.562;8.856;2022-10-19T00:59:58;31.52;;;18.58;;
51020;SDS011;38907;45.562;8.856;2022-10-19T01:05:04;28.42;;;18.73;;
51020;SDS011;38907;45.562;8.856;2022-10-19T01:10:08;29.60;;;19.45;;
51020;SDS011;38907;45.562;8.856;2022-10-19T01:15:13;25.83;;;17.58;;
51020;SDS011;38907;45.562;8.856;2022-10-19T01:26:06;27.85;;;19.02;;
51020;SDS011;38907;45.562;8.856;2022-10-19T01:31:23;26.80;;;18.27;;
51020;SDS011;38907;45.562;8.856;2022-10-19T01:36:33;25.30;;;17.70;;
51020;SDS011;38907;45.562;8.856;2022-10-19T01:41:43;25.30;;;17.52;;
51020;SDS011;38907;45.562;8.856;2022-10-19T01:46:49;27.10;;;18.05;;
51020;SDS011;38907;45.562;8.856;2022-10-19T01:51:55;26.10;;;16.75;;
51020;SDS011;38907;45.562;8.856;2022-10-19T01:56:59;27.65;;;17.38;;
51020;SDS011;38907;45.562;8.856;2022-10-19T02:02:06;27.38;;;16.98;;
51020;SDS011;38907;45.562;8.856;2022-10-19T02:07:10;24.42;;;15.60;;
51020;SDS011;38907;45.562;8.856;2022-10-19T02:12:13;26.17;;;16.83;;
51020;SDS011;38907;45.562;8.856;2022-10-19T02:17:18;28.02;;;16.65;;
51020;SDS011;38907;45.562;8.856;2022-10-19T02:22:22;30.10;;;17.33;;
51020;SDS011;38907;45.562;8.856;2022-10-19T02:27:24;31.20;;;16.80;;
51020;SDS011;38907;45.562;8.856;2022-10-19T02:32:28;26.17;;;16.00;;
51020;SDS011;38907;45.562;8.856;2022-10-19T02:42:33;25.92;;;16.10;;
51020;SDS011;38907;45.562;8.856;2022-10-19T02:47:41;25.85;;;15.80;;
51020;SDS011;38907;45.562;8.856;2022-10-19T02:52:45;24.63;;;16.50;;
51020;SDS011;38907;45.562;8.856;2022-10-19T02:57:47;20.65;;;13.98;;
51020;SDS011;38907;45.562;8.856;2022-10-19T03:02:50;23.80;;;13.90;;
51020;SDS011;38907;45.562;8.856;2022-10-19T03:07:52;23.00;;;14.38;;
51020;SDS011;38907;45.562;8.856;2022-10-19T03:12:55;23.60;;;15.10;;
51020;SDS011;38907;45.562;8.856;2022-10-19T03:17:59;22.55;;;14.68;;
51020;SDS011;38907;45.562;8.856;2022-10-19T03:23:00;22.73;;;14.93;;
51020;SDS011;38907;45.562;8.856;2022-10-19T03:28:02;19.55;;;13.73;;
51020;SDS011;38907;45.562;8.856;2022-10-19T03:33:05;25.45;;;13.23;;
51020;SDS011;38907;45.562;8.856;2022-10-19T03:38:07;24.58;;;13.23;;
51020;SDS011;38907;45.562;8.856;2022-10-19T03:43:09;21.75;;;13.80;;
51020;SDS011;38907;45.562;8.856;2022-10-19T03:48:12;22.15;;;14.35;;
51020;SDS011;38907;45.562;8.856;2022-10-19T03:53:14;19.25;;;13.18;;
51020;SDS011;38907;45.562;8.856;2022-10-19T03:58:16;21.35;;;13.50;;
51020;SDS011;38907;45.562;8.856;2022-10-19T04:03:20;21.65;;;13.85;;
51020;SDS011;38907;45.562;8.856;2022-10-19T04:08:22;18.92;;;12.18;;
51020;SDS011;38907;45.562;8.856;2022-10-19T04:13:24;20.25;;;12.82;;
51020;SDS011;38907;45.562;8.856;2022-10-19T04:18:27;19.55;;;12.23;;
51020;SDS011;38907;45.562;8.856;2022-10-19T04:23:31;17.30;;;11.93;;
51020;SDS011;38907;45.562;8.856;2022-10-19T04:28:34;19.80;;;11.77;;
51020;SDS011;38907;45.562;8.856;2022-10-19T04:33:37;20.13;;;12.52;;
51020;SDS011;38907;45.562;8.856;2022-10-19T04:38:40;15.77;;;11.38;;
51020;SDS011;38907;45.562;8.856;2022-10-19T04:43:41;17.95;;;11.77;;
51020;SDS011;38907;45.562;8.856;2022-10-19T04:48:47;18.73;;;10.73;;
51020;SDS011;38907;45.562;8.856;2022-10-19T04:53:49;17.90;;;10.95;;
51020;SDS011;38907;45.562;8.856;2022-10-19T04:58:53;18.73;;;12.15;;
51020;SDS011;38907;45.562;8.856;2022-10-19T05:03:58;16.10;;;11.23;;
51020;SDS011;38907;45.562;8.856;2022-10-19T05:09:02;18.15;;;11.60;;
51020;SDS011;38907;45.562;8.856;2022-10-19T05:14:04;18.05;;;10.75;;
51020;SDS011;38907;45.562;8.856;2022-10-19T05:19:10;17.92;;;10.73;;
51020;SDS011;38907;45.562;8.856;2022-10-19T05:24:13;17.50;;;10.75;;
51020;SDS011;38907;45.562;8.856;2022-10-19T05:29:15;14.82;;;10.40;;
51020;SDS011;38907;45.562;8.856;2022-10-19T05:34:18;21.52;;;11.32;;
51020;SDS011;38907;45.562;8.856;2022-10-19T05:39:20;17.70;;;10.60;;
51020;SDS011;38907;45.562;8.856;2022-10-19T05:44:23;19.98;;;10.80;;
51020;SDS011;38907;45.562;8.856;2022-10-19T05:49:26;16.58;;;9.63;;
51020;SDS011;38907;45.562;8.856;2022-10-19T05:54:28;16.30;;;10.10;;
51020;SDS011;38907;45.562;8.856;2022-10-19T05:59:30;17.30;;;10.77;;
51020;SDS011;38907;45.562;8.856;2022-10-19T06:04:33;16.50;;;11.02;;
51020;SDS011;38907;45.562;8.856;2022-10-19T06:09:35;18.90;;;10.55;;
51020;SDS011;38907;45.562;8.856;2022-10-19T06:14:37;22.50;;;12.38;;
51020;SDS011;38907;45.562;8.856;2022-10-19T06:19:40;22.50;;;10.93;;
51020;SDS011;38907;45.562;8.856;2022-10-19T06:24:42;18.20;;;11.88;;
51020;SDS011;38907;45.562;8.856;2022-10-19T06:29:44;20.40;;;12.45;;
51020;SDS011;38907;45.562;8.856;2022-10-19T06:34:47;15.52;;;10.93;;
51020;SDS011;38907;45.562;8.856;2022-10-19T06:39:49;18.67;;;12.13;;
51020;SDS011;38907;45.562;8.856;2022-10-19T06:44:51;19.52;;;12.63;;
51020;SDS011;38907;45.562;8.856;2022-10-19T06:49:54;24.35;;;14.75;;
51020;SDS011;38907;45.562;8.856;2022-10-19T06:54:56;19.63;;;14.18;;
51020;SDS011;38907;45.562;8.856;2022-10-19T06:59:57;25.45;;;14.57;;
51020;SDS011;38907;45.562;8.856;2022-10-19T07:05:01;22.75;;;13.88;;
51020;SDS011;38907;45.562;8.856;2022-10-19T07:15:05;27.77;;;16.48;;
51020;SDS011;38907;45.562;8.856;2022-10-19T07:20:09;29.35;;;16.13;;
51020;SDS011;38907;45.562;8.856;2022-10-19T07:25:11;25.98;;;16.10;;
51020;SDS011;38907;45.562;8.856;2022-10-19T07:30:13;24.30;;;14.07;;
51020;SDS011;38907;45.562;8.856;2022-10-19T07:35:16;31.45;;;14.85;;
51020;SDS011;38907;45.562;8.856;2022-10-19T07:45:20;23.52;;;14.43;;
51020;SDS011;38907;45.562;8.856;2022-10-19T07:50:23;25.02;;;15.65;;
51020;SDS011;38907;45.562;8.856;2022-10-19T07:55:26;29.20;;;17.40;;
51020;SDS011;38907;45.562;8.856;2022-10-19T08:00:28;28.17;;;18.20;;
51020;SDS011;38907;45.562;8.856;2022-10-19T08:05:32;30.40;;;19.35;;
51020;SDS011;38907;45.562;8.856;2022-10-19T08:10:34;38.58;;;19.67;;
51020;SDS011;38907;45.562;8.856;2022-10-19T08:15:36;34.20;;;19.75;;
51020;SDS011;38907;45.562;8.856;2022-10-19T08:20:40;31.23;;;20.13;;
51020;SDS011;38907;45.562;8.856;2022-10-19T08:25:43;37.55;;;23.17;;
51020;SDS011;38907;45.562;8.856;2022-10-19T08:30:45;35.22;;;21.13;;
51020;SDS011;38907;45.562;8.856;2022-10-19T08:35:48;36.53;;;21.98;;
51020;SDS011;38907;45.562;8.856;2022-10-19T08:40:50;43.72;;;23.23;;
51020;SDS011;38907;45.562;8.856;2022-10-19T08:45:52;41.70;;;23.98;;
51020;SDS011;38907;45.562;8.856;2022-10-19T08:51:02;43.30;;;25.30;;
51020;SDS011;38907;45.562;8.856;2022-10-19T08:56:14;45.10;;;25.85;;
51020;SDS011;38907;45.562;8.856;2022-10-19T09:01:28;45.28;;;26.15;;
51020;SDS011;38907;45.562;8.856;2022-10-19T09:06:40;44.28;;;26.48;;
51020;SDS011;38907;45.562;8.856;2022-10-19T09:11:50;42.27;;;25.53;;
51020;SDS011;38907;45.562;8.856;2022-10-19T09:16:57;41.03;;;25.00;;
51020;SDS011;38907;45.562;8.856;2022-10-19T09:22:03;46.28;;;27.15;;
51020;SDS011;38907;45.562;8.856;2022-10-19T09:27:09;49.20;;;27.52;;
51020;SDS011;38907;45.562;8.856;2022-10-19T09:32:19;46.33;;;28.02;;
51020;SDS011;38907;45.562;8.856;2022-10-19T09:37:25;51.55;;;29.75;;
51020;SDS011;38907;45.562;8.856;2022-10-19T09:42:29;54.25;;;28.90;;
51020;SDS011;38907;45.562;8.856;2022-10-19T09:47:32;51.75;;;29.48;;
51020;SDS011;38907;45.562;8.856;2022-10-19T09:52:37;54.00;;;29.95;;
51020;SDS011;38907;45.562;8.856;2022-10-19T09:57:40;50.80;;;29.27;;
51020;SDS011;38907;45.562;8.856;2022-10-19T10:02:47;53.30;;;29.92;;
51020;SDS011;38907;45.562;8.856;2022-10-19T10:07:53;49.30;;;29.08;;
51020;SDS011;38907;45.562;8.856;2022-10-19T10:12:56;53.40;;;26.40;;
51020;SDS011;38907;45.562;8.856;2022-10-19T10:17:59;48.42;;;27.17;;
51020;SDS011;38907;45.562;8.856;2022-10-19T10:23:03;51.90;;;28.37;;
51020;SDS011;38907;45.562;8.856;2022-10-19T10:28:16;55.88;;;29.73;;
51020;SDS011;38907;45.562;8.856;2022-10-19T10:33:20;47.97;;;26.23;;
51020;SDS011;38907;45.562;8.856;2022-10-19T10:38:27;49.40;;;28.38;;
51020;SDS011;38907;45.562;8.856;2022-10-19T10:43:34;49.03;;;27.90;;
51020;SDS011;38907;45.562;8.856;2022-10-19T10:48:39;50.08;;;29.67;;
51020;SDS011;38907;45.562;8.856;2022-10-19T10:53:45;54.00;;;30.92;;
51020;SDS011;38907;45.562;8.856;2022-10-19T10:58:49;47.22;;;25.65;;
51020;SDS011;38907;45.562;8.856;2022-10-19T11:03:56;49.83;;;27.02;;
51020;SDS011;38907;45.562;8.856;2022-10-19T11:09:06;40.38;;;24.65;;
51020;SDS011;38907;45.562;8.856;2022-10-19T11:14:21;51.78;;;26.83;;
51020;SDS011;38907;45.562;8.856;2022-10-19T11:19:30;46.33;;;26.20;;
51020;SDS011;38907;45.562;8.856;2022-10-19T11:24:41;54.38;;;28.95;;
51020;SDS011;38907;45.562;8.856;2022-10-19T11:30:06;42.78;;;27.33;;
51020;SDS011;38907;45.562;8.856;2022-10-19T11:35:19;51.80;;;28.27;;
51020;SDS011;38907;45.562;8.856;2022-10-19T11:40:37;50.15;;;28.70;;
51020;SDS011;38907;45.562;8.856;2022-10-19T11:45:45;53.97;;;30.80;;
51020;SDS011;38907;45.562;8.856;2022-10-19T11:50:52;53.83;;;30.65;;
51020;SDS011;38907;45.562;8.856;2022-10-19T11:56:02;54.50;;;30.42;;
51020;SDS011;38907;45.562;8.856;2022-10-19T12:01:15;54.00;;;30.50;;
51020;SDS011;38907;45.562;8.856;2022-10-19T12:06:25;61.72;;;31.92;;
51020;SDS011;38907;45.562;8.856;2022-10-19T12:11:37;53.47;;;30.88;;
51020;SDS011;38907;45.562;8.856;2022-10-19T12:16:54;65.50;;;32.47;;
51020;SDS011;38907;45.562;8.856;2022-10-19T12:22:00;50.83;;;30.75;;
51020;SDS011;38907;45.562;8.856;2022-10-19T12:27:05;56.85;;;32.22;;
51020;SDS011;38907;45.562;8.856;2022-10-19T12:32:12;57.08;;;31.98;;
51020;SDS011;38907;45.562;8.856;2022-10-19T12:37:18;58.00;;;33.53;;
51020;SDS011;38907;45.562;8.856;2022-10-19T12:42:28;48.78;;;30.80;;
51020;SDS011;38907;45.562;8.856;2022-10-19T12:47:35;50.65;;;30.58;;
51020;SDS011;38907;45.562;8.856;2022-10-19T12:52:38;57.77;;;31.07;;
51020;SDS011;38907;45.562;8.856;2022-10-19T12:57:43;63.58;;;31.73;;
51020;SDS011;38907;45.562;8.856;2022-10-19T13:02:54;53.45;;;31.40;;
51020;SDS011;38907;45.562;8.856;2022-10-19T13:07:59;57.10;;;30.55;;
51020;SDS011;38907;45.562;8.856;2022-10-19T13:13:04;47.58;;;29.35;;
51020;SDS011;38907;45.562;8.856;2022-10-19T13:24:34;48.00;;;29.42;;
51020;SDS011;38907;45.562;8.856;2022-10-19T13:29:39;47.67;;;28.75;;
51020;SDS011;38907;45.562;8.856;2022-10-19T13:34:44;53.13;;;29.33;;
51020;SDS011;38907;45.562;8.856;2022-10-19T13:39:46;49.78;;;30.23;;
51020;SDS011;38907;45.562;8.856;2022-10-19T13:44:50;50.70;;;29.38;;
51020;SDS011;38907;45.562;8.856;2022-10-19T13:50:05;45.97;;;28.10;;
51020;SDS011;38907;45.562;8.856;2022-10-19T13:55:22;54.70;;;29.17;;
51020;SDS011;38907;45.562;8.856;2022-10-19T14:00:56;49.88;;;31.17;;
51020;SDS011;38907;45.562;8.856;2022-10-19T14:06:12;51.67;;;28.20;;
51020;SDS011;38907;45.562;8.856;2022-10-19T14:11:23;54.25;;;29.52;;
51020;SDS011;38907;45.562;8.856;2022-10-19T14:16:28;47.45;;;27.77;;
51020;SDS011;38907;45.562;8.856;2022-10-19T14:21:30;52.65;;;26.25;;
51020;SDS011;38907;45.562;8.856;2022-10-19T14:26:35;44.25;;;25.33;;
51020;SDS011;38907;45.562;8.856;2022-10-19T14:31:39;39.37;;;23.00;;
51020;SDS011;38907;45.562;8.856;2022-10-19T14:36:42;41.95;;;23.73;;
51020;SDS011;38907;45.562;8.856;2022-10-19T14:41:47;43.60;;;25.50;;
51020;SDS011;38907;45.562;8.856;2022-10-19T14:46:55;34.08;;;22.55;;
51020;SDS011;38907;45.562;8.856;2022-10-19T14:52:01;35.42;;;22.33;;
51020;SDS011;38907;45.562;8.856;2022-10-19T14:57:05;34.45;;;21.73;;
51020;SDS011;38907;45.562;8.856;2022-10-19T15:02:14;40.03;;;22.02;;
51020;SDS011;38907;45.562;8.856;2022-10-19T15:07:20;37.08;;;20.35;;
51020;SDS011;38907;45.562;8.856;2022-10-19T15:12:26;34.78;;;21.65;;
51020;SDS011;38907;45.562;8.856;2022-10-19T15:17:31;37.13;;;21.63;;
51020;SDS011;38907;45.562;8.856;2022-10-19T15:22:38;37.22;;;21.63;;
51020;SDS011;38907;45.562;8.856;2022-10-19T15:27:40;33.58;;;21.20;;
51020;SDS011;38907;45.562;8.856;2022-10-19T15:32:48;36.83;;;21.75;;
51020;SDS011;38907;45.562;8.856;2022-10-19T15:37:58;40.35;;;22.05;;
51020;SDS011;38907;45.562;8.856;2022-10-19T15:48:28;41.85;;;23.73;;
51020;SDS011;38907;45.562;8.856;2022-10-19T15:53:45;47.72;;;24.52;;
51020;SDS011;38907;45.562;8.856;2022-10-19T15:58:47;48.40;;;21.85;;
51020;SDS011;38907;45.562;8.856;2022-10-19T16:03:51;35.25;;;20.48;;
51020;SDS011;38907;45.562;8.856;2022-10-19T16:08:54;41.13;;;22.27;;
51020;SDS011;38907;45.562;8.856;2022-10-19T16:13:57;39.08;;;18.40;;
51020;SDS011;38907;45.562;8.856;2022-10-19T16:19:00;33.33;;;16.93;;
51020;SDS011;38907;45.562;8.856;2022-10-19T16:24:03;29.63;;;17.67;;
51020;SDS011;38907;45.562;8.856;2022-10-19T16:29:05;27.70;;;16.63;;
51020;SDS011;38907;45.562;8.856;2022-10-19T16:34:09;37.97;;;20.27;;
51020;SDS011;38907;45.562;8.856;2022-10-19T16:39:10;34.17;;;20.58;;
51020;SDS011;38907;45.562;8.856;2022-10-19T16:44:12;28.95;;;17.98;;
51020;SDS011;38907;45.562;8.856;2022-10-19T16:49:16;38.73;;;21.17;;
51020;SDS011;38907;45.562;8.856;2022-10-19T16:54:18;35.53;;;20.27;;
51020;SDS011;38907;45.562;8.856;2022-10-19T16:59:20;32.85;;;20.02;;
51020;SDS011;38907;45.562;8.856;2022-10-19T17:04:23;35.77;;;19.43;;
51020;SDS011;38907;45.562;8.856;2022-10-19T17:09:25;40.55;;;21.02;;
51020;SDS011;38907;45.562;8.856;2022-10-19T17:14:27;39.33;;;21.92;;
51020;SDS011;38907;45.562;8.856;2022-10-19T17:19:30;36.80;;;21.65;;
51020;SDS011;38907;45.562;8.856;2022-10-19T17:24:32;46.00;;;23.15;;
51020;SDS011;38907;45.562;8.856;2022-10-19T17:29:34;42.10;;;24.77;;
51020;SDS011;38907;45.562;8.856;2022-10-19T17:34:37;44.72;;;28.23;;
51020;SDS011;38907;45.562;8.856;2022-10-19T17:39:39;44.03;;;26.20;;
51020;SDS011;38907;45.562;8.856;2022-10-19T17:44:41;46.28;;;23.92;;
51020;SDS011;38907;45.562;8.856;2022-10-19T17:49:44;41.67;;;23.37;;
51020;SDS011;38907;45.562;8.856;2022-10-19T17:54:46;59.70;;;33.85;;
51020;SDS011;38907;45.562;8.856;2022-10-19T17:59:48;67.95;;;35.17;;
51020;SDS011;38907;45.562;8.856;2022-10-19T18:04:51;62.63;;;30.88;;
51020;SDS011;38907;45.562;8.856;2022-10-19T18:09:53;47.33;;;28.52;;
51020;SDS011;38907;45.562;8.856;2022-10-19T18:14:55;50.78;;;28.55;;
51020;SDS011;38907;45.562;8.856;2022-10-19T18:19:58;59.10;;;26.92;;
51020;SDS011;38907;45.562;8.856;2022-10-19T18:25:00;57.40;;;31.95;;
51020;SDS011;38907;45.562;8.856;2022-10-19T18:30:02;93.85;;;44.75;;
51020;SDS011;38907;45.562;8.856;2022-10-19T18:35:06;71.70;;;36.30;;
51020;SDS011;38907;45.562;8.856;2022-10-19T18:40:09;50.05;;;28.92;;
51020;SDS011;38907;45.562;8.856;2022-10-19T18:45:11;59.73;;;28.77;;
51020;SDS011;38907;45.562;8.856;2022-10-19T18:50:15;57.60;;;28.40;;
51020;SDS011;38907;45.562;8.856;2022-10-19T18:55:17;46.67;;;27.35;;
51020;SDS011;38907;45.562;8.856;2022-10-19T19:00:19;48.45;;;27.27;;
51020;SDS011;38907;45.562;8.856;2022-10-19T19:05:23;68.88;;;39.03;;
51020;SDS011;38907;45.562;8.856;2022-10-19T19:10:25;58.55;;;33.40;;
51020;SDS011;38907;45.562;8.856;2022-10-19T19:15:27;49.55;;;28.17;;
51020;SDS011;38907;45.562;8.856;2022-10-19T19:20:30;45.25;;;27.08;;
51020;SDS011;38907;45.562;8.856;2022-10-19T19:25:32;47.10;;;27.00;;
51020;SDS011;38907;45.562;8.856;2022-10-19T19:30:37;45.03;;;27.05;;
51020;SDS011;38907;45.562;8.856;2022-10-19T19:35:42;48.53;;;28.30;;
51020;SDS011;38907;45.562;8.856;2022-10-19T19:40:45;46.03;;;27.17;;
51020;SDS011;38907;45.562;8.856;2022-10-19T19:45:54;62.63;;;29.15;;
51020;SDS011;38907;45.562;8.856;2022-10-19T19:50:58;61.80;;;33.63;;
51020;SDS011;38907;45.562;8.856;2022-10-19T19:56:00;57.30;;;31.67;;
51020;SDS011;38907;45.562;8.856;2022-10-19T20:01:07;57.97;;;29.48;;
51020;SDS011;38907;45.562;8.856;2022-10-19T20:06:11;63.45;;;36.13;;
51020;SDS011;38907;45.562;8.856;2022-10-19T20:11:14;56.88;;;33.08;;
51020;SDS011;38907;45.562;8.856;2022-10-19T20:16:19;50.65;;;29.42;;
51020;SDS011;38907;45.562;8.856;2022-10-19T20:21:23;45.63;;;26.63;;
51020;SDS011;38907;45.562;8.856;2022-10-19T20:26:26;50.10;;;26.30;;
51020;SDS011;38907;45.562;8.856;2022-10-19T20:31:29;46.30;;;26.60;;
51020;SDS011;38907;45.562;8.856;2022-10-19T20:41:35;46.17;;;25.95;;
51020;SDS011;38907;45.562;8.856;2022-10-19T20:46:37;43.25;;;27.83;;
51020;SDS011;38907;45.562;8.856;2022-10-19T20:51:41;44.47;;;26.83;;
51020;SDS011;38907;45.562;8.856;2022-10-19T20:56:43;45.67;;;27.05;;
51020;SDS011;38907;45.562;8.856;2022-10-19T21:01:45;47.13;;;27.70;;
51020;SDS011;38907;45.562;8.856;2022-10-19T21:06:51;47.65;;;27.77;;
51020;SDS011;38907;45.562;8.856;2022-10-19T21:11:53;47.85;;;28.02;;
51020;SDS011;38907;45.562;8.856;2022-10-19T21:16:55;48.42;;;27.27;;
51020;SDS011;38907;45.562;8.856;2022-10-19T21:27:02;50.43;;;29.10;;
51020;SDS011;38907;45.562;8.856;2022-10-19T21:32:05;49.88;;;27.50;;
51020;SDS011;38907;45.562;8.856;2022-10-19T21:37:08;43.70;;;26.67;;
51020;SDS011;38907;45.562;8.856;2022-10-19T21:42:10;44.95;;;26.67;;
51020;SDS011;38907;45.562;8.856;2022-10-19T21:47:12;48.97;;;27.38;;
51020;SDS011;38907;45.562;8.856;2022-10-19T21:52:15;43.80;;;27.23;;
51020;SDS011;38907;45.562;8.856;2022-10-19T21:57:17;45.97;;;27.33;;
51020;SDS011;38907;45.562;8.856;2022-10-19T22:02:19;40.05;;;25.73;;
51020;SDS011;38907;45.562;8.856;2022-10-19T22:07:22;55.47;;;28.05;;
51020;SDS011;38907;45.562;8.856;2022-10-19T22:12:24;43.88;;;27.40;;
51020;SDS011;38907;45.562;8.856;2022-10-19T22:17:26;52.35;;;28.67;;
51020;SDS011;38907;45.562;8.856;2022-10-19T22:22:29;43.22;;;26.92;;
51020;SDS011;38907;45.562;8.856;2022-10-19T22:27:31;40.85;;;25.95;;
51020;SDS011;38907;45.562;8.856;2022-10-19T22:32:33;46.93;;;25.87;;
51020;SDS011;38907;45.562;8.856;2022-10-19T22:37:36;39.42;;;24.35;;
51020;SDS011;38907;45.562;8.856;2022-10-19T22:54:33;42.03;;;23.40;;
51020;SDS011;38907;45.562;8.856;2022-10-19T22:59:35;42.78;;;24.00;;
51020;SDS011;38907;45.562;8.856;2022-10-19T23:04:37;38.25;;;23.60;;
51020;SDS011;38907;45.562;8.856;2022-10-19T23:09:40;39.05;;;23.45;;
51020;SDS011;38907;45.562;8.856;2022-10-19T23:19:44;37.15;;;23.13;;
51020;SDS011;38907;45.562;8.856;2022-10-19T23:24:47;37.35;;;21.25;;
51020;SDS011;38907;45.562;8.856;2022-10-19T23:29:49;31.38;;;19.58;;
51020;SDS011;38907;45.562;8.856;2022-10-19T23:34:51;32.03;;;20.83;;
51020;SDS011;38907;45.562;8.856;2022-10-19T23:39:54;33.90;;;20.80;;
51020;SDS011;38907;45.562;8.856;2022-10-19T23:49:57;30.83;;;19.80;;
51020;SDS011;38907;45.562;8.856;2022-10-19T23:55:00;26.52;;;17.48;;
